createdAt,value
2019-05-06T00:04:35.357Z,97446.73
2019-05-06T00:09:56.807Z,97440.73
2019-05-06T00:15:18.306Z,97441.94
2019-05-06T00:20:40.044Z,97443.53
2019-05-06T00:26:27.181Z,97444.50
2019-05-06T00:31:49.498Z,97444.55
2019-05-06T00:37:11.304Z,97433.06
2019-05-06T00:42:54.239Z,97433.06
2019-05-06T00:48:16.403Z,97438.97
2019-05-06T00:53:40.247Z,97426.96
2019-05-06T00:59:03.739Z,97421.30
2019-05-06T01:04:26.191Z,97423.14
2019-05-06T01:09:47.403Z,97420.34
2019-05-06T01:15:14.342Z,97431.81
2019-05-06T01:20:36.595Z,97423.14
2019-05-06T01:25:58.446Z,97428.77
2019-05-06T01:31:20.220Z,97423.47
2019-05-06T01:36:43.729Z,97430.16
2019-05-06T01:42:13.841Z,97437.38
2019-05-06T01:47:35.860Z,97432.54
2019-05-06T01:52:57.452Z,97431.83
2019-05-06T01:58:19.119Z,97424.37
2019-05-06T02:03:40.610Z,97423.53
2019-05-06T02:09:04.666Z,97427.52
2019-05-06T02:14:26.601Z,97408.63
2019-05-06T02:19:48.484Z,97413.22
2019-05-06T02:25:14.736Z,97413.09
2019-05-06T02:31:07.838Z,97411.08
2019-05-06T02:36:45.696Z,97405.55
2019-05-06T02:42:07.713Z,97206.07
2019-05-06T02:47:47.864Z,97405.61
2019-05-06T02:53:09.011Z,97413.63
2019-05-06T02:58:33.032Z,97416.34
2019-05-06T03:03:54.615Z,97422.75
2019-05-06T03:09:16.344Z,97409.47
2019-05-06T03:14:38.409Z,97377.35
2019-05-06T03:20:04.265Z,97416.23
2019-05-06T03:25:28.080Z,97421.30
2019-05-06T03:30:49.710Z,97427.92
2019-05-06T03:36:18.714Z,97426.11
2019-05-06T03:41:35.314Z,97434.61
2019-05-06T03:47:17.450Z,97431.44
2019-05-06T03:52:39.387Z,97440.11
2019-05-06T03:58:03.829Z,97440.78
2019-05-06T04:03:42.443Z,97442.97
2019-05-06T04:08:52.628Z,97450.09
2019-05-06T04:14:16.627Z,97446.92
2019-05-06T04:19:45.020Z,97434.78
2019-05-06T04:25:15.069Z,97439.73
2019-05-06T04:30:36.913Z,97424.14
2019-05-06T04:35:59.202Z,97441.25
2019-05-06T04:41:23.108Z,97430.67
2019-05-06T04:46:45.013Z,97438.22
2019-05-06T04:52:06.719Z,97442.97
2019-05-06T04:57:36.388Z,97460.11
2019-05-06T05:03:02.856Z,97457.74
2019-05-06T05:08:36.429Z,97441.63
2019-05-06T05:14:14.431Z,97445.00
2019-05-06T05:19:36.050Z,97442.72
2019-05-06T05:24:58.844Z,97437.06
2019-05-06T05:30:22.018Z,97433.47
2019-05-06T05:35:43.919Z,97440.66
2019-05-06T05:41:05.314Z,97440.59
2019-05-06T05:46:26.963Z,97435.06
2019-05-06T05:51:48.441Z,97428.48
2019-05-06T05:57:11.908Z,97437.55
2019-05-06T06:02:33.913Z,97431.35
2019-05-06T06:07:55.408Z,97438.39
2019-05-06T06:13:17.251Z,97433.39
2019-05-06T06:18:56.015Z,97431.72
2019-05-06T06:24:28.186Z,97431.72
2019-05-06T06:29:52.564Z,97428.03
2019-05-06T06:35:29.808Z,97417.48
2019-05-06T06:40:55.463Z,97428.81
2019-05-06T06:46:36.589Z,97420.66
2019-05-06T06:51:58.450Z,97413.28
2019-05-06T06:57:39.381Z,97409.39
2019-05-06T07:03:12.336Z,97400.67
2019-05-06T07:08:37.600Z,97399.45
2019-05-06T07:13:58.401Z,97399.05
2019-05-06T07:19:27.034Z,97400.90
2019-05-06T07:24:48.835Z,97404.39
2019-05-06T07:30:12.459Z,97398.39
2019-05-06T07:35:40.385Z,97400.70
2019-05-06T07:41:05.005Z,97389.56
2019-05-06T07:46:49.252Z,97385.19
2019-05-06T07:52:12.336Z,97389.16
2019-05-06T07:57:34.249Z,97386.95
2019-05-06T08:02:55.718Z,97393.52
2019-05-06T08:08:17.253Z,97392.55
2019-05-06T08:13:38.886Z,97385.53
2019-05-06T08:19:02.668Z,97390.88
2019-05-06T08:24:24.247Z,97390.70
2019-05-06T08:29:45.738Z,97389.02
2019-05-06T08:35:10.028Z,97383.91
2019-05-06T08:40:32.168Z,97377.54
2019-05-06T08:45:53.961Z,97377.01
2019-05-06T08:51:34.750Z,97388.30
2019-05-06T08:56:56.590Z,97387.94
2019-05-06T09:02:19.811Z,97384.43
2019-05-06T09:07:42.985Z,97377.77
2019-05-06T09:13:04.821Z,97370.41
2019-05-06T09:18:26.668Z,97372.50
2019-05-06T09:23:48.319Z,97360.04
2019-05-06T09:29:14.040Z,97353.64
2019-05-06T09:34:43.149Z,97347.59
2019-05-06T09:40:05.294Z,97342.42
2019-05-06T09:45:27.249Z,97327.45
2019-05-06T09:50:49.102Z,97309.10
2019-05-06T09:56:33.800Z,97305.81
2019-05-06T10:01:55.663Z,97298.59
2019-05-06T10:07:17.472Z,97287.37
2019-05-06T10:12:39.348Z,97270.97
2019-05-06T10:18:06.804Z,97264.63
2019-05-06T10:23:28.664Z,97257.33
2019-05-06T10:29:18.651Z,97238.19
2019-05-06T10:34:40.192Z,97219.50
2019-05-06T10:40:15.319Z,97218.95
2019-05-06T10:45:37.145Z,97216.63
2019-05-06T10:51:06.303Z,97229.05
2019-05-06T10:56:52.874Z,97208.81
2019-05-06T11:02:27.805Z,97187.40
2019-05-06T11:07:52.014Z,97198.70
2019-05-06T11:13:14.161Z,97193.52
2019-05-06T11:18:35.772Z,97276.84
2019-05-06T11:23:58.167Z,97276.84
2019-05-06T11:29:24.833Z,97256.60
2019-05-06T11:34:58.544Z,97241.83
2019-05-06T11:40:20.114Z,97244.91
2019-05-06T11:45:42.722Z,97223.09
2019-05-06T11:51:08.096Z,97217.63
2019-05-06T11:56:30.129Z,97218.03
2019-05-06T12:02:04.185Z,97214.15
2019-05-06T12:07:26.134Z,97201.25
2019-05-06T12:12:47.657Z,97180.89
2019-05-06T12:18:09.756Z,97180.52
2019-05-06T12:23:35.270Z,97162.21
2019-05-06T12:28:55.052Z,97153.05
2019-05-06T12:34:16.691Z,97132.22
2019-05-06T12:39:43.187Z,97107.84
2019-05-06T12:45:24.973Z,97099.42
2019-05-06T12:50:46.952Z,97095.34
2019-05-06T12:56:09.061Z,97099.78
2019-05-06T13:01:33.836Z,97088.14
2019-05-06T13:06:54.689Z,97082.01
2019-05-06T13:12:19.829Z,97076.00
2019-05-06T13:17:42.528Z,97056.50
2019-05-06T13:23:17.117Z,97049.28
2019-05-06T13:28:36.277Z,97047.91
2019-05-06T13:34:04.712Z,97036.28
2019-05-06T13:39:27.022Z,97039.03
2019-05-06T13:44:49.231Z,97041.20
2019-05-06T13:50:12.298Z,97030.58
2019-05-06T13:55:34.424Z,97016.84
2019-05-06T14:00:56.717Z,97035.42
2019-05-06T14:06:20.703Z,97029.14
2019-05-06T14:11:42.533Z,97025.98
2019-05-06T14:17:04.737Z,97035.05
2019-05-06T14:22:26.482Z,97043.30
2019-05-06T14:27:52.702Z,97044.59
2019-05-06T14:33:16.500Z,97060.17
2019-05-06T14:38:38.368Z,97058.23
2019-05-06T14:44:02.684Z,97055.96
2019-05-06T14:49:24.005Z,97054.98
2019-05-06T14:54:52.953Z,97053.78
2019-05-06T15:00:16.746Z,97062.91
2019-05-06T15:05:38.446Z,97065.27
2019-05-06T15:11:02.921Z,97079.16
2019-05-06T15:16:24.251Z,97098.23
2019-05-06T15:21:46.639Z,97123.19
2019-05-06T15:27:08.292Z,97125.85
2019-05-06T15:32:36.195Z,97115.05
2019-05-06T15:38:26.694Z,97142.23
2019-05-06T15:43:48.515Z,97128.07
2019-05-06T15:49:10.079Z,97134.92
2019-05-06T15:54:32.302Z,97153.95
2019-05-06T15:59:54.309Z,97166.20
2019-05-06T16:05:20.006Z,97177.42
2019-05-06T16:10:52.106Z,97187.22
2019-05-06T16:16:06.528Z,97244.59
2019-05-06T16:21:26.398Z,97199.91
2019-05-06T16:26:48.151Z,97178.23
2019-05-06T16:32:10.014Z,97197.11
2019-05-06T16:37:32.963Z,97166.11
2019-05-06T16:42:55.268Z,97207.23
2019-05-06T16:48:17.366Z,97171.03
2019-05-06T16:53:39.433Z,97186.06
2019-05-06T16:59:03.005Z,97178.44
2019-05-06T17:04:37.127Z,97168.23
2019-05-06T17:09:59.073Z,97167.45
2019-05-06T17:15:22.894Z,97207.75
2019-05-06T17:20:45.325Z,97239.98
2019-05-06T17:26:06.947Z,97238.20
2019-05-06T17:31:51.156Z,97195.64
2019-05-06T17:37:32.619Z,97191.05
2019-05-06T17:42:54.506Z,97238.81
2019-05-06T17:48:42.391Z,97232.86
2019-05-06T17:54:04.639Z,97238.92
2019-05-06T17:59:26.157Z,97247.88
2019-05-06T18:04:47.872Z,97265.98
2019-05-06T18:10:11.871Z,97253.14
2019-05-06T18:15:33.095Z,97259.13
2019-05-06T18:20:54.673Z,97247.83
2019-05-06T18:26:16.266Z,97245.41
2019-05-06T18:31:38.295Z,97238.00
2019-05-06T18:36:59.669Z,97246.71
2019-05-06T18:42:23.681Z,97264.03
2019-05-06T18:47:45.027Z,97270.16
2019-05-06T18:53:07.010Z,97285.84
2019-05-06T18:58:28.589Z,97321.13
2019-05-06T19:04:05.826Z,97338.44
2019-05-06T19:09:35.682Z,97365.58
2019-05-06T19:14:57.382Z,97390.86
2019-05-06T19:20:19.163Z,97375.69
2019-05-06T19:25:42.824Z,97363.10
2019-05-06T19:31:04.404Z,97353.69
2019-05-06T19:36:26.213Z,97348.70
2019-05-06T19:41:47.874Z,97372.41
2019-05-06T19:47:09.810Z,97384.27
2019-05-06T19:52:32.650Z,97363.23
2019-05-06T19:57:53.971Z,97360.59
2019-05-06T20:03:17.309Z,97333.56
2019-05-06T20:08:47.653Z,97360.84
2019-05-06T20:14:09.502Z,97289.01
2019-05-06T20:19:33.709Z,97308.79
2019-05-06T20:24:54.821Z,97299.50
2019-05-06T20:30:16.831Z,97304.81
2019-05-06T20:35:39.030Z,97309.84
2019-05-06T20:41:02.887Z,97327.41
2019-05-06T20:46:24.378Z,97333.20
2019-05-06T20:51:46.094Z,97339.45
2019-05-06T20:57:07.922Z,97343.39
2019-05-06T21:02:29.752Z,97340.41
2019-05-06T21:07:52.597Z,97341.53
2019-05-06T21:13:28.580Z,97340.24
2019-05-06T21:18:38.754Z,97346.76
2019-05-06T21:24:02.015Z,97356.39
2019-05-06T21:29:24.282Z,97359.77
2019-05-06T21:34:46.338Z,97357.97
2019-05-06T21:40:08.478Z,97359.31
2019-05-06T21:45:32.884Z,97349.17
2019-05-06T21:50:54.216Z,97360.80
2019-05-06T21:56:16.331Z,97364.63
2019-05-06T22:01:39.121Z,97376.41
2019-05-06T22:07:02.881Z,97398.61
2019-05-06T22:12:24.800Z,97395.64
2019-05-06T22:17:47.128Z,97411.22
2019-05-06T22:23:08.882Z,97414.84
2019-05-06T22:28:31.915Z,97415.52
2019-05-06T22:33:54.012Z,97425.78
2019-05-06T22:39:15.949Z,97433.66
2019-05-06T22:44:37.629Z,97425.30
2019-05-06T22:49:59.124Z,97417.98
2019-05-06T22:55:22.088Z,97411.02
2019-05-06T23:00:46.058Z,97401.95
2019-05-06T23:06:07.970Z,97397.46
2019-05-06T23:11:29.905Z,97403.45
2019-05-06T23:16:52.157Z,97389.48
2019-05-06T23:22:13.791Z,97393.93
2019-05-06T23:27:35.677Z,97430.14
2019-05-06T23:32:57.348Z,97385.48
2019-05-06T23:38:55.190Z,97418.22
2019-05-06T23:44:54.701Z,97417.56
2019-05-06T23:50:53.025Z,97399.86
2019-05-06T23:56:43.417Z,97411.17
